Time;durP1;ratioP1;P1;durP2;ratioP2;P2;SDS_P1;SDS_P2;PMS_P1;PMS_P2;Temp;Humidity;BMP_temperature;BMP_pressure;BME280_temperature;BME280_humidity;BME280_pressure;Samples;Min_cycle;Max_cycle;Signal;HPM_P1;HPM_P2
2022/06/27 00:00:45;;;;;;;5.35;3.97;;;;;;;23.54;59.78;100708.69;5013142;28;20022;-82
2022/06/27 00:03:11;;;;;;;5.32;3.90;;;;;;;23.59;59.79;100716.31;5013176;28;20030;-82
2022/06/27 00:05:36;;;;;;;4.95;3.65;;;;;;;23.52;59.88;100708.03;5012841;28;20108;-81
2022/06/27 00:08:02;;;;;;;4.45;3.50;;;;;;;23.51;60.12;100711.00;5012999;28;20060;-81
2022/06/27 00:10:28;;;;;;;12.30;4.95;;;;;;;23.51;59.11;100714.59;5013021;28;20026;-81
2022/06/27 00:12:54;;;;;;;7.97;3.38;;;;;;;23.50;59.17;100715.66;5013403;28;20065;-81
2022/06/27 00:15:20;;;;;;;6.40;3.92;;;;;;;23.43;58.86;100711.19;5012724;28;20048;-81
2022/06/27 00:17:46;;;;;;;4.10;3.70;;;;;;;23.35;59.15;100714.94;4995717;28;20448;-81
2022/06/27 00:20:11;;;;;;;6.88;3.17;;;;;;;23.29;59.03;100711.13;5013457;28;20033;-81
2022/06/27 00:22:37;;;;;;;4.22;3.00;;;;;;;23.28;59.13;100708.56;5015367;28;20056;-81
2022/06/27 00:25:03;;;;;;;10.65;4.03;;;;;;;23.26;59.68;100714.28;5015777;28;20180;-81
2022/06/27 00:27:29;;;;;;;7.88;3.83;;;;;;;23.18;59.60;100697.09;5015118;28;20034;-81
2022/06/27 00:29:54;;;;;;;12.00;3.78;;;;;;;23.27;59.58;100704.16;5013420;28;20169;-81
2022/06/27 00:32:21;;;;;;;6.25;3.58;;;;;;;23.28;59.66;100703.06;5012553;28;20030;-82
2022/06/27 00:34:47;;;;;;;6.55;4.10;;;;;;;23.33;59.60;100703.31;5012746;28;20494;-82
2022/06/27 00:37:12;;;;;;;12.30;3.72;;;;;;;23.37;59.73;100710.06;5014800;28;20026;-82
2022/06/27 00:39:38;;;;;;;8.55;3.63;;;;;;;23.44;59.26;100712.88;5017236;28;20030;-82
2022/06/27 00:42:04;;;;;;;7.45;4.15;;;;;;;23.43;59.30;100701.03;5017178;28;20463;-82
2022/06/27 00:44:33;;;;;;;3.75;3.40;;;;;;;23.41;59.60;100708.66;5016824;28;20046;-82
2022/06/27 00:46:59;;;;;;;6.68;3.95;;;;;;;23.46;59.68;100706.13;5023280;28;20026;-81
2022/06/27 00:49:24;;;;;;;12.32;3.63;;;;;;;23.42;59.44;100704.88;5020962;28;20480;-81
2022/06/27 00:51:50;;;;;;;6.13;3.40;;;;;;;23.31;59.32;100709.00;5016929;28;20029;-81
2022/06/27 00:54:15;;;;;;;8.05;3.80;;;;;;;23.35;59.10;100703.09;5016814;28;20026;-81
2022/06/27 00:56:41;;;;;;;9.30;3.55;;;;;;;23.15;59.40;100692.88;5016602;28;20029;-81
2022/06/27 00:59:06;;;;;;;4.97;3.30;;;;;;;23.35;59.16;100711.34;5017448;28;20057;-81
2022/06/27 01:01:32;;;;;;;6.32;3.28;;;;;;;23.36;58.95;100713.91;5016860;28;20050;-81
2022/06/27 01:04:00;;;;;;;8.38;3.55;;;;;;;23.28;58.98;100712.16;5019483;28;20030;-81
2022/06/27 01:06:27;;;;;;;6.28;3.78;;;;;;;23.34;58.80;100718.72;5034630;28;20384;-82
2022/06/27 01:08:52;;;;;;;4.10;3.58;;;;;;;23.33;58.81;100717.88;5020107;28;20030;-82
2022/06/27 01:11:19;;;;;;;6.78;3.05;;;;;;;23.25;58.76;100700.75;5016515;28;20036;-82
2022/06/27 01:13:44;;;;;;;6.95;3.50;;;;;;;23.31;58.69;100719.13;5015965;28;20480;-81
2022/06/27 01:16:10;;;;;;;3.97;3.40;;;;;;;23.23;58.87;100702.84;5016118;28;20036;-82
2022/06/27 01:18:35;;;;;;;7.28;3.38;;;;;;;23.21;59.17;100707.69;5016224;28;20026;-82
2022/06/27 01:21:01;;;;;;;4.60;3.17;;;;;;;23.14;59.46;100704.94;5016061;28;20180;-81
2022/06/27 01:23:27;;;;;;;9.82;2.95;;;;;;;23.06;59.91;100698.75;5016065;28;20105;-82
2022/06/27 01:25:54;;;;;;;6.72;3.65;;;;;;;23.09;59.93;100698.34;4998241;28;20030;-81
2022/06/27 01:28:20;;;;;;;9.02;3.97;;;;;;;23.08;60.19;100704.91;4997962;28;20037;-81
2022/06/27 01:30:47;;;;;;;8.45;3.30;;;;;;;23.09;59.86;100699.19;5015604;28;20033;-81
2022/06/27 01:33:12;;;;;;;5.15;3.78;;;;;;;23.10;59.95;100700.91;5015428;28;20088;-81
2022/06/27 01:35:38;;;;;;;5.15;3.10;;;;;;;23.01;59.88;100693.03;5015594;28;20029;-81
2022/06/27 01:38:03;;;;;;;8.10;3.20;;;;;;;23.02;59.84;100689.25;5015550;28;20048;-81
2022/06/27 01:40:29;;;;;;;3.28;2.95;;;;;;;23.07;59.68;100694.97;5015983;28;20036;-82
2022/06/27 01:42:55;;;;;;;5.25;3.25;;;;;;;23.06;59.82;100705.09;5015631;28;20037;-82
2022/06/27 01:45:20;;;;;;;4.35;3.30;;;;;;;23.08;59.68;100702.16;5015327;28;20061;-80
2022/06/27 01:47:46;;;;;;;4.63;3.38;;;;;;;23.10;59.63;100702.78;5014997;28;20036;-80
2022/06/27 01:50:13;;;;;;;6.07;3.17;;;;;;;23.11;59.79;100709.97;5017315;28;20057;-80
2022/06/27 01:52:40;;;;;;;11.30;3.45;;;;;;;23.15;59.25;100714.84;5017426;28;20050;-81
2022/06/27 01:55:06;;;;;;;4.93;3.20;;;;;;;23.10;59.78;100700.91;5016619;28;20549;-81
2022/06/27 01:57:32;;;;;;;5.03;3.33;;;;;;;23.13;59.66;100705.13;5017669;28;20030;-81
2022/06/27 01:59:57;;;;;;;8.10;3.58;;;;;;;23.06;59.59;100698.75;5015496;28;20452;-82
2022/06/27 02:02:23;;;;;;;3.70;3.08;;;;;;;23.12;59.62;100708.91;5015766;28;20056;-81
2022/06/27 02:04:49;;;;;;;4.60;3.25;;;;;;;23.13;59.57;100699.63;5015902;28;20463;-83
2022/06/27 02:07:16;;;;;;;9.45;3.47;;;;;;;23.13;59.51;100705.13;5015901;28;20029;-82
2022/06/27 02:09:41;;;;;;;3.83;3.03;;;;;;;23.06;59.62;100693.25;5015034;28;20041;-82
2022/06/27 02:12:21;;;;;;;4.35;2.97;;;;;;;23.04;59.68;100696.22;5015300;28;20021;-81
2022/06/27 02:14:53;;;;;;;8.30;3.50;;;;;;;23.06;60.06;100698.75;5015159;28;20483;-81
2022/06/27 02:17:20;;;;;;;6.53;3.25;;;;;;;23.05;60.00;100697.94;5015496;28;20029;-81
2022/06/27 02:19:46;;;;;;;6.80;3.67;;;;;;;23.01;60.08;100693.03;5014978;28;20018;-81
2022/06/27 02:22:13;;;;;;;8.10;3.72;;;;;;;23.07;59.93;100714.16;5014889;28;20029;-82
2022/06/27 02:24:39;;;;;;;6.45;3.45;;;;;;;23.05;60.06;100708.06;5014903;28;20060;-82
2022/06/27 02:27:07;;;;;;;6.25;3.03;;;;;;;23.16;59.68;100718.44;5015128;28;20048;-82
2022/06/27 02:29:33;;;;;;;10.73;3.53;;;;;;;23.12;59.87;100717.13;5014566;28;20058;-82
2022/06/27 02:32:00;;;;;;;8.25;3.10;;;;;;;23.12;59.94;100728.13;5015220;28;20033;-82
2022/06/27 02:34:27;;;;;;;6.13;3.30;;;;;;;23.12;59.86;100720.72;5015793;28;20026;-81
2022/06/27 02:36:56;;;;;;;9.27;3.55;;;;;;;23.07;60.19;100714.16;5018111;28;20026;-81
2022/06/27 02:39:24;;;;;;;5.35;3.53;;;;;;;23.07;60.61;100712.28;5022448;28;20499;-81
2022/06/27 02:41:56;;;;;;;11.48;3.72;;;;;;;23.09;60.42;100709.31;5006758;28;20030;-80
2022/06/27 02:44:22;;;;;;;5.30;3.50;;;;;;;23.10;60.71;100719.25;5018308;28;20103;-81
2022/06/27 02:46:51;;;;;;;8.60;3.85;;;;;;;23.12;60.56;100714.41;5014640;28;20091;-81
2022/06/27 02:49:17;;;;;;;5.88;3.45;;;;;;;23.11;60.62;100712.72;5014410;28;20026;-81
2022/06/27 02:51:51;;;;;;;4.95;3.75;;;;;;;23.08;61.07;100719.47;5014169;28;20053;-81
2022/06/27 02:54:26;;;;;;;7.60;3.92;;;;;;;23.08;61.27;100719.47;5013881;28;20028;-82
2022/06/27 02:57:00;;;;;;;4.53;3.63;;;;;;;22.99;61.38;100714.34;5014000;28;20017;-81
2022/06/27 02:59:37;;;;;;;5.07;3.28;;;;;;;23.04;61.51;100722.81;5013525;28;20399;-82
2022/06/27 03:02:08;;;;;;;12.00;4.10;;;;;;;23.07;61.95;100722.41;5014876;28;20097;-82
2022/06/27 03:04:33;;;;;;;6.00;4.28;;;;;;;23.11;61.58;100726.44;5014966;28;20361;-82
2022/06/27 03:06:59;;;;;;;8.98;4.32;;;;;;;23.15;61.73;100722.22;5013923;28;20028;-81
2022/06/27 03:09:24;;;;;;;5.35;3.63;;;;;;;23.20;61.83;100716.97;5014015;28;20021;-81
2022/06/27 03:11:50;;;;;;;9.88;4.53;;;;;;;23.13;61.83;100718.84;5014226;28;20030;-82
2022/06/27 03:14:15;;;;;;;7.45;4.65;;;;;;;23.20;61.52;100723.31;5014268;28;20033;-81
2022/06/27 03:16:41;;;;;;;5.53;4.13;;;;;;;23.27;61.56;100723.34;5014878;28;20109;-82
2022/06/27 03:19:07;;;;;;;13.18;3.88;;;;;;;23.10;61.71;100708.28;5016744;28;20025;-82
2022/06/27 03:21:32;;;;;;;8.02;4.20;;;;;;;23.23;61.83;100727.56;5017226;28;20052;-81
2022/06/27 03:23:58;;;;;;;8.00;3.67;;;;;;;23.14;61.69;100723.28;5016199;28;20219;-81
2022/06/27 03:26:23;;;;;;;8.27;4.05;;;;;;;23.10;61.95;100728.34;5014052;28;20387;-81
2022/06/27 03:28:49;;;;;;;8.77;4.38;;;;;;;23.08;62.22;100729.59;5013881;28;20045;-82
2022/06/27 03:31:15;;;;;;;4.10;3.70;;;;;;;22.99;62.79;100725.31;5014012;28;20034;-76
2022/06/27 03:33:41;;;;;;;8.05;4.47;;;;;;;22.94;62.95;100727.81;5013341;28;20030;-78
2022/06/27 03:36:08;;;;;;;6.32;4.40;;;;;;;22.91;63.46;100714.50;5013426;28;20048;-78
2022/06/27 03:38:34;;;;;;;9.85;5.13;;;;;;;22.94;63.67;100716.84;5013621;28;20025;-79
2022/06/27 03:40:59;;;;;;;11.40;4.47;;;;;;;22.95;63.67;100715.81;5013059;28;20061;-77
2022/06/27 03:43:25;;;;;;;6.72;5.68;;;;;;;22.98;63.76;100713.50;5012767;28;20396;-76
2022/06/27 03:45:51;;;;;;;9.15;5.40;;;;;;;23.01;63.78;100725.97;4993785;28;20555;-77
2022/06/27 03:51:01;;;;;;;12.43;5.05;;;;;;;23.02;64.42;100724.91;4995411;28;20124;-82
2022/06/27 03:53:26;;;;;;;13.55;5.60;;;;;;;22.82;64.36;100702.00;4996383;28;20476;-85
2022/06/27 03:55:52;;;;;;;8.00;5.22;;;;;;;22.87;64.93;100725.06;4993903;28;20033;-87
2022/06/27 03:58:18;;;;;;;8.52;5.03;;;;;;;22.85;65.15;100727.13;4994498;28;20018;-86
2022/06/27 04:00:44;;;;;;;7.57;5.30;;;;;;;22.75;65.13;100722.00;4994120;28;20125;-84
2022/06/27 04:03:09;;;;;;;10.13;5.82;;;;;;;22.90;65.19;100738.38;4994285;28;20468;-80
2022/06/27 04:05:35;;;;;;;9.60;5.65;;;;;;;22.88;65.64;100739.59;4993598;28;20030;-76
2022/06/27 04:08:00;;;;;;;16.10;6.70;;;;;;;22.93;65.47;100748.94;4993525;28;20113;-82
2022/06/27 04:10:26;;;;;;;7.30;4.93;;;;;;;22.98;65.21;100757.41;4993562;28;20475;-85
2022/06/27 04:12:51;;;;;;;13.05;5.53;;;;;;;22.95;65.38;100741.34;4994763;28;20445;-86
2022/06/27 04:15:17;;;;;;;18.77;6.93;;;;;;;23.02;65.34;100746.88;4994620;28;20030;-80
2022/06/27 04:17:42;;;;;;;17.00;7.25;;;;;;;23.05;64.84;100743.72;4995633;28;20023;-81
2022/06/27 04:20:08;;;;;;;15.50;6.28;;;;;;;23.09;65.01;100736.75;5009540;28;20026;-81
2022/06/27 04:22:34;;;;;;;15.75;6.43;;;;;;;23.19;65.15;100749.06;4997877;28;20034;-80
2022/06/27 04:25:00;;;;;;;8.65;6.60;;;;;;;23.27;64.88;100746.13;4993163;28;20404;-83
2022/06/27 04:27:27;;;;;;;17.75;6.85;;;;;;;23.34;64.74;100751.66;4993164;28;20033;-83
2022/06/27 04:29:53;;;;;;;13.95;6.55;;;;;;;23.43;64.47;100750.47;4993613;28;20373;-81
2022/06/27 04:32:21;;;;;;;17.58;6.43;;;;;;;23.55;64.41;100748.81;4992845;28;20026;-78
2022/06/27 04:34:48;;;;;;;13.63;6.50;;;;;;;23.50;64.27;100743.09;4997887;28;20116;-81
2022/06/27 04:37:13;;;;;;;9.10;5.97;;;;;;;23.58;64.33;100744.81;4991843;28;20046;-77
2022/06/27 04:39:39;;;;;;;15.15;7.10;;;;;;;23.65;63.80;100741.03;4991756;28;20038;-80
2022/06/27 04:42:08;;;;;;;11.73;6.03;;;;;;;23.76;63.50;100745.91;4974645;28;20031;-82
2022/06/27 04:44:36;;;;;;;11.27;6.28;;;;;;;23.79;63.53;100740.00;4992204;28;20500;-78
2022/06/27 04:47:04;;;;;;;15.27;6.15;;;;;;;23.91;63.29;100748.50;4976074;28;20109;-82
2022/06/27 04:49:30;;;;;;;13.60;5.75;;;;;;;23.97;63.05;100752.31;4981955;28;20030;-85
2022/06/27 04:51:58;;;;;;;36.63;7.75;;;;;;;24.05;62.98;100746.63;4998786;28;20176;-80
2022/06/27 04:54:24;;;;;;;13.75;6.47;;;;;;;24.07;62.48;100749.97;4998173;28;20046;-82
2022/06/27 04:56:49;;;;;;;15.82;6.65;;;;;;;24.10;62.81;100741.31;4963168;28;20034;-81
2022/06/27 04:59:15;;;;;;;12.85;5.90;;;;;;;24.18;62.81;100743.91;4974801;28;20471;-81
2022/06/27 05:01:41;;;;;;;16.75;6.00;;;;;;;24.26;62.49;100749.19;4992426;28;20026;-81
2022/06/27 05:04:06;;;;;;;11.40;7.32;;;;;;;24.26;62.41;100738.19;4992848;28;20034;-80
2022/06/27 05:06:32;;;;;;;11.88;6.78;;;;;;;24.36;62.08;100749.63;4991906;28;20023;-80
2022/06/27 05:08:58;;;;;;;16.42;8.32;;;;;;;24.36;61.96;100741.38;4996133;28;20080;-81
2022/06/27 05:11:24;;;;;;;9.55;6.43;;;;;;;24.46;61.21;100754.72;4994723;28;20030;-81
2022/06/27 05:13:50;;;;;;;14.45;7.75;;;;;;;24.50;61.08;100756.81;4991824;28;20105;-82
2022/06/27 05:16:17;;;;;;;16.50;7.07;;;;;;;24.57;61.18;100757.66;4991902;28;20481;-83
2022/06/27 05:18:42;;;;;;;24.13;7.90;;;;;;;24.69;61.25;100764.22;4975209;28;20015;-85
2022/06/27 05:21:08;;;;;;;13.10;6.60;;;;;;;24.67;60.99;100752.59;4992374;28;20030;-84
2022/06/27 05:23:37;;;;;;;19.33;6.63;;;;;;;24.75;60.96;100770.75;4977605;28;20120;-85
2022/06/27 05:26:06;;;;;;;12.48;6.50;;;;;;;24.75;61.17;100779.00;4995947;28;20026;-82
2022/06/27 05:28:32;;;;;;;26.42;7.40;;;;;;;24.80;60.85;100771.81;4995954;28;20037;-87
2022/06/27 05:30:57;;;;;;;15.02;6.82;;;;;;;24.68;61.45;100767.16;4995706;28;20022;-78
2022/06/27 05:33:23;;;;;;;19.60;6.72;;;;;;;24.63;61.56;100765.06;4994636;28;20444;-82
2022/06/27 05:35:50;;;;;;;12.68;7.28;;;;;;;24.62;61.55;100757.84;4996021;28;20034;-80
2022/06/27 05:38:16;;;;;;;14.93;6.82;;;;;;;24.65;61.26;100762.94;4994680;28;20030;-82
2022/06/27 05:40:41;;;;;;;13.70;7.85;;;;;;;24.77;61.15;100780.47;4995681;28;20033;-76
2022/06/27 05:43:07;;;;;;;18.40;6.85;;;;;;;24.82;61.06;100769.72;4994937;28;20030;-76
2022/06/27 05:45:33;;;;;;;16.88;6.53;;;;;;;24.81;60.85;100775.44;4992994;28;20066;-76
2022/06/27 05:48:03;;;;;;;10.98;7.07;;;;;;;24.78;60.80;100773.06;4994675;28;20034;-77
2022/06/27 05:50:29;;;;;;;20.27;7.68;;;;;;;24.78;60.62;100768.44;4994482;28;20022;-76
2022/06/27 05:52:57;;;;;;;21.10;7.80;;;;;;;24.77;60.73;100771.38;4994921;28;20395;-75
2022/06/27 05:55:23;;;;;;;17.75;8.82;;;;;;;24.66;61.31;100783.88;4994511;28;20022;-76
2022/06/27 05:57:48;;;;;;;18.58;9.48;;;;;;;24.69;61.56;100775.22;4994760;28;20057;-78
2022/06/27 06:00:15;;;;;;;24.80;10.50;;;;;;;24.72;62.19;100783.03;4995168;28;20106;-77
2022/06/27 06:02:41;;;;;;;33.45;11.20;;;;;;;24.76;62.69;100778.81;4994361;28;20022;-76
2022/06/27 06:05:11;;;;;;;28.90;11.38;;;;;;;24.76;62.85;100770.56;4992938;28;20037;-76
2022/06/27 06:07:37;;;;;;;38.10;11.70;;;;;;;24.95;62.57;100781.78;4994114;28;20050;-76
2022/06/27 06:10:04;;;;;;;25.33;11.63;;;;;;;24.99;62.85;100777.50;4994402;28;20022;-76
2022/06/27 06:12:30;;;;;;;22.20;9.45;;;;;;;25.02;62.54;100783.44;4994566;28;20022;-76
2022/06/27 06:15:02;;;;;;;30.25;10.45;;;;;;;25.13;61.97;100776.44;4994499;28;20044;-77
2022/06/27 06:17:33;;;;;;;17.83;8.10;;;;;;;25.10;60.56;100761.22;4994187;28;20046;-77
2022/06/27 06:19:59;;;;;;;21.00;8.75;;;;;;;25.16;61.14;100751.22;4994239;28;20027;-77
2022/06/27 06:22:25;;;;;;;30.75;10.85;;;;;;;25.30;61.70;100761.13;4993963;28;20026;-78
2022/06/27 06:24:50;;;;;;;28.45;10.05;;;;;;;25.23;61.80;100735.50;4994546;28;20030;-78
2022/06/27 06:27:19;;;;;;;19.27;8.18;;;;;;;25.41;60.31;100752.22;4992967;28;20456;-77
2022/06/27 06:29:45;;;;;;;16.05;6.03;;;;;;;25.55;60.04;100764.88;4994030;28;20022;-76
2022/06/27 06:32:11;;;;;;;24.35;11.35;;;;;;;25.63;60.11;100769.28;4994146;28;20499;-75
2022/06/27 06:34:37;;;;;;;27.00;11.57;;;;;;;25.57;60.79;100768.25;4992908;28;20030;-76
2022/06/27 06:37:04;;;;;;;17.45;9.32;;;;;;;25.62;60.79;100762.94;4993808;28;20403;-76
2022/06/27 06:39:30;;;;;;;20.30;11.73;;;;;;;25.69;60.77;100751.84;4994701;28;20022;-76
2022/06/27 06:41:57;;;;;;;22.75;9.82;;;;;;;25.79;61.42;100755.00;4994018;28;20399;-77
2022/06/27 06:44:24;;;;;;;7.82;5.57;;;;;;;25.87;59.27;100747.31;4994287;28;20129;-77
2022/06/27 06:46:50;;;;;;;14.93;5.63;;;;;;;25.80;59.11;100738.25;4997578;28;20117;-77
2022/06/27 06:49:16;;;;;;;14.95;6.38;;;;;;;25.94;58.64;100748.13;4994571;28;20027;-76
2022/06/27 06:51:42;;;;;;;9.15;5.70;;;;;;;26.03;59.33;100745.94;4993598;28;20022;-76
2022/06/27 06:54:08;;;;;;;13.27;5.88;;;;;;;26.16;58.34;100745.03;4993753;28;20032;-76
2022/06/27 06:56:36;;;;;;;13.98;5.50;;;;;;;26.07;57.66;100741.66;4992600;28;20117;-76
2022/06/27 06:59:03;;;;;;;11.57;8.88;;;;;;;26.17;58.36;100743.97;4993725;28;20025;-76
2022/06/27 07:01:33;;;;;;;8.10;5.15;;;;;;;26.26;58.44;100750.91;4993836;28;20482;-76
2022/06/27 07:03:59;;;;;;;10.32;5.53;;;;;;;26.29;57.19;100728.38;4993770;28;20026;-77
2022/06/27 07:06:28;;;;;;;10.77;5.13;;;;;;;26.46;57.09;100746.06;4993920;28;20399;-76
2022/06/27 07:08:55;;;;;;;23.73;6.45;;;;;;;26.51;56.15;100746.25;4991954;28;20023;-76
2022/06/27 07:11:22;;;;;;;8.15;4.72;;;;;;;26.51;56.35;100737.97;4993939;28;20026;-76
2022/06/27 07:13:51;;;;;;;10.68;6.45;;;;;;;26.63;56.04;100752.72;4993222;28;20022;-77
2022/06/27 07:16:18;;;;;;;10.18;6.22;;;;;;;26.63;55.28;100747.19;4993314;28;20026;-77
2022/06/27 07:18:44;;;;;;;9.73;4.95;;;;;;;26.62;54.80;100751.00;4993506;28;20023;-77
2022/06/27 07:21:12;;;;;;;14.30;5.53;;;;;;;26.56;54.74;100740.88;4993631;28;20026;-77
2022/06/27 07:23:37;;;;;;;11.18;5.68;;;;;;;26.64;54.37;100748.84;4993052;28;20026;-78
2022/06/27 07:26:03;;;;;;;7.55;4.70;;;;;;;26.59;53.39;100740.41;4993450;28;20504;-76
2022/06/27 07:28:29;;;;;;;13.15;5.03;;;;;;;26.62;54.06;100750.16;4993165;28;20081;-79
2022/06/27 07:30:55;;;;;;;8.38;4.45;;;;;;;26.49;53.64;100727.13;4993508;28;20030;-77
2022/06/27 07:33:21;;;;;;;17.67;5.57;;;;;;;26.69;53.38;100740.75;4993550;28;20415;-77
2022/06/27 07:35:47;;;;;;;9.63;4.28;;;;;;;26.78;53.82;100739.41;4995917;28;20029;-77
2022/06/27 07:38:13;;;;;;;14.95;5.32;;;;;;;26.93;54.02;100741.81;5000150;28;20018;-77
2022/06/27 07:40:38;;;;;;;13.98;6.25;;;;;;;26.98;53.78;100728.16;4994609;28;20037;-77
2022/06/27 07:43:05;;;;;;;9.68;5.57;;;;;;;27.09;53.06;100748.66;4993573;28;20069;-76
2022/06/27 07:45:32;;;;;;;12.10;5.00;;;;;;;27.13;53.17;100736.06;4992531;28;20054;-76
2022/06/27 07:47:58;;;;;;;9.32;5.03;;;;;;;27.18;53.24;100731.56;4994237;28;20042;-75
2022/06/27 07:50:40;;;;;;;9.88;5.28;;;;;;;27.21;53.04;100739.38;4992899;28;20076;-76
2022/06/27 07:53:11;;;;;;;13.25;5.95;;;;;;;27.33;53.15;100720.09;4992964;28;20079;-76
2022/06/27 07:55:39;;;;;;;8.87;6.27;;;;;;;27.54;52.37;100744.50;4986961;28;20022;-78
2022/06/27 07:58:06;;;;;;;11.70;4.85;;;;;;;27.59;52.67;100736.34;4992732;28;20022;-76
2022/06/27 08:00:31;;;;;;;12.50;5.05;;;;;;;27.70;51.99;100746.63;4992381;28;20022;-75
2022/06/27 08:02:57;;;;;;;17.35;5.32;;;;;;;27.80;53.08;100735.84;4992455;28;20102;-76
2022/06/27 08:05:22;;;;;;;7.22;4.93;;;;;;;27.83;52.04;100727.06;4992401;28;20048;-76
2022/06/27 08:07:49;;;;;;;10.18;4.53;;;;;;;27.85;51.93;100738.75;4992533;28;20110;-75
2022/06/27 08:10:15;;;;;;;13.63;5.38;;;;;;;27.78;52.40;100732.47;4992231;28;20500;-76
2022/06/27 08:12:40;;;;;;;10.68;4.90;;;;;;;27.72;51.91;100724.28;4992016;28;20057;-76
2022/06/27 08:15:06;;;;;;;17.70;6.20;;;;;;;27.88;52.93;100738.28;4992872;28;20547;-77
2022/06/27 08:17:32;;;;;;;9.55;6.00;;;;;;;27.92;52.99;100741.44;4992443;28;20026;-77
2022/06/27 08:19:58;;;;;;;16.88;4.43;;;;;;;27.93;50.33;100732.88;4991343;28;20023;-77
2022/06/27 08:22:25;;;;;;;7.38;4.78;;;;;;;28.03;50.23;100744.22;4992597;28;20026;-77
2022/06/27 08:24:52;;;;;;;9.30;4.68;;;;;;;27.97;50.90;100736.03;4992302;28;20014;-79
2022/06/27 08:27:17;;;;;;;11.00;4.28;;;;;;;28.03;50.28;100730.41;4992216;28;20034;-81
2022/06/27 08:29:43;;;;;;;7.97;4.25;;;;;;;28.12;50.12;100730.94;4992215;28;20897;-79
2022/06/27 08:32:09;;;;;;;7.00;3.72;;;;;;;28.25;50.12;100743.72;4991960;28;20100;-80
2022/06/27 08:34:35;;;;;;;12.95;4.38;;;;;;;28.19;49.75;100741.88;4993084;28;20026;-86
2022/06/27 08:37:02;;;;;;;9.68;3.88;;;;;;;28.13;49.31;100721.56;4995685;28;20034;-85
2022/06/27 08:39:29;;;;;;;8.75;5.22;;;;;;;28.19;48.66;100733.59;4996551;28;20015;-81
2022/06/27 08:41:56;;;;;;;8.60;3.75;;;;;;;28.30;49.15;100733.59;4992415;28;20126;-83
2022/06/27 08:44:23;;;;;;;7.88;4.25;;;;;;;28.42;49.96;100725.31;4990686;28;20070;-83
2022/06/27 08:46:54;;;;;;;12.07;4.32;;;;;;;28.57;49.71;100734.00;4993872;28;20066;-82
2022/06/27 08:49:21;;;;;;;16.25;4.82;;;;;;;28.64;49.37;100729.19;4992737;28;20523;-82
2022/06/27 08:51:48;;;;;;;11.70;4.35;;;;;;;28.75;48.49;100728.38;4993113;28;20022;-82
2022/06/27 08:54:14;;;;;;;10.07;3.80;;;;;;;28.78;48.05;100727.88;4993067;28;20031;-82
2022/06/27 08:56:40;;;;;;;24.73;5.30;;;;;;;28.63;49.01;100733.03;4993550;28;20030;-82
2022/06/27 08:59:06;;;;;;;8.45;4.75;;;;;;;28.71;48.51;100727.19;4995148;28;20018;-82
2022/06/27 09:01:32;;;;;;;8.57;3.90;;;;;;;28.65;48.01;100699.63;4999282;28;20033;-82
2022/06/27 09:04:10;;;;;;;14.73;4.47;;;;;;;28.80;47.87;100720.19;4996816;28;20052;-83
2022/06/27 09:06:45;;;;;;;14.48;3.90;;;;;;;28.83;47.90;100716.09;4996057;28;20483;-83
2022/06/27 09:09:14;;;;;;;5.72;3.70;;;;;;;28.92;47.87;100721.03;5004028;28;20060;-84
2022/06/27 09:11:42;;;;;;;17.30;5.75;;;;;;;29.02;47.58;100720.41;4995750;28;20042;-83
2022/06/27 09:14:36;;;;;;;9.63;3.97;;;;;;;29.08;47.26;100723.03;4997198;28;20030;-84
2022/06/27 09:17:09;;;;;;;19.40;5.10;;;;;;;29.19;47.79;100715.78;5004492;28;20026;-83
2022/06/27 09:19:54;;;;;;;11.88;4.05;;;;;;;29.21;46.58;100707.22;4996149;28;20074;-82
2022/06/27 09:22:23;;;;;;;10.57;4.07;;;;;;;29.12;46.87;100709.53;4998675;28;20026;-82
2022/06/27 09:25:14;;;;;;;5.03;3.15;;;;;;;29.18;45.38;100708.56;5002205;28;20030;-83
2022/06/27 09:27:50;;;;;;;5.28;2.95;;;;;;;29.18;46.03;100708.56;5004251;28;20022;-82
2022/06/27 09:30:18;;;;;;;9.02;3.67;;;;;;;29.26;46.94;100699.91;5003446;28;20049;-82
2022/06/27 09:32:44;;;;;;;7.18;4.57;;;;;;;29.42;47.02;100707.44;4998535;28;20090;-82
2022/06/27 09:35:36;;;;;;;9.43;4.60;;;;;;;29.40;46.03;100706.00;4995436;28;20117;-83
2022/06/27 09:38:04;;;;;;;17.70;4.43;;;;;;;29.36;46.24;100704.78;5005658;28;20018;-82
2022/06/27 09:40:33;;;;;;;9.18;4.03;;;;;;;29.33;45.80;100699.75;5000464;28;20061;-84
2022/06/27 09:42:59;;;;;;;28.67;8.52;;;;;;;29.37;44.68;100703.72;4997881;28;20104;-84
2022/06/27 09:45:28;;;;;;;13.70;5.32;;;;;;;29.40;43.27;100700.47;4997952;28;20050;-82
2022/06/27 09:47:58;;;;;;;8.30;2.85;;;;;;;29.28;43.52;100667.25;4997186;28;20118;-82
2022/06/27 09:50:25;;;;;;;8.93;3.33;;;;;;;29.54;44.25;100693.56;4995076;28;20038;-82
2022/06/27 09:52:51;;;;;;;9.15;3.83;;;;;;;29.56;44.03;100672.81;4995855;28;20030;-84
2022/06/27 09:55:21;;;;;;;16.05;3.42;;;;;;;29.78;44.41;100681.25;4995195;28;20153;-82
2022/06/27 09:57:46;;;;;;;8.05;3.45;;;;;;;29.92;43.79;100692.88;4994954;28;20026;-83
2022/06/27 10:00:13;;;;;;;7.90;3.00;;;;;;;30.01;42.37;100697.78;4995091;28;20030;-83
2022/06/27 10:02:39;;;;;;;10.77;3.97;;;;;;;30.01;41.84;100683.91;4995102;28;20034;-83
2022/06/27 10:05:05;;;;;;;6.20;3.17;;;;;;;30.06;42.36;100688.72;4994493;28;20463;-81
2022/06/27 10:07:31;;;;;;;11.85;3.65;;;;;;;30.09;42.38;100682.66;4994546;28;20056;-83
2022/06/27 10:09:57;;;;;;;10.32;3.50;;;;;;;30.15;42.54;100676.94;4992971;28;20449;-82
2022/06/27 10:12:27;;;;;;;9.05;3.13;;;;;;;30.20;43.08;100685.34;4994573;28;20109;-82
2022/06/27 10:15:11;;;;;;;5.97;3.10;;;;;;;30.32;42.85;100682.50;4994783;28;20084;-81
2022/06/27 10:17:50;;;;;;;6.45;3.63;;;;;;;30.28;42.63;100664.66;4994767;28;20109;-82
2022/06/27 10:20:20;;;;;;;11.25;3.75;;;;;;;30.39;41.62;100676.81;4993746;28;20037;-82
2022/06/27 10:23:03;;;;;;;9.15;3.58;;;;;;;30.43;41.97;100670.47;4994838;28;20109;-79
2022/06/27 10:25:29;;;;;;;5.63;2.90;;;;;;;30.51;41.58;100669.22;4995794;28;20037;-80
2022/06/27 10:28:10;;;;;;;7.47;5.57;;;;;;;30.51;39.96;100669.22;4995219;28;20026;-78
2022/06/27 10:30:38;;;;;;;18.40;4.20;;;;;;;30.56;40.89;100664.56;4993073;28;20495;-78
2022/06/27 10:33:28;;;;;;;4.85;3.08;;;;;;;30.77;41.56;100657.38;4994599;28;20404;-81
2022/06/27 10:36:02;;;;;;;8.60;3.55;;;;;;;30.83;41.50;100661.06;4994443;28;20054;-77
2022/06/27 10:38:34;;;;;;;12.15;3.70;;;;;;;30.94;40.75;100657.34;4994258;28;20019;-78
2022/06/27 10:41:01;;;;;;;9.27;2.67;;;;;;;30.96;39.28;100656.00;4994333;28;20458;-78
2022/06/27 10:43:35;;;;;;;12.70;4.65;;;;;;;31.04;40.20;100646.41;4994036;28;20053;-78
2022/06/27 10:46:21;;;;;;;6.30;3.53;;;;;;;31.09;40.26;100643.66;4993084;28;20034;-78
2022/06/27 10:48:47;;;;;;;7.18;3.85;;;;;;;31.05;39.35;100648.91;4994758;28;20057;-80
2022/06/27 10:51:31;;;;;;;4.65;2.53;;;;;;;30.95;38.78;100642.34;4995233;28;20054;-78
2022/06/27 10:54:06;;;;;;;5.28;3.22;;;;;;;30.98;38.72;100641.84;4997958;28;20033;-77
2022/06/27 10:56:35;;;;;;;10.45;6.32;;;;;;;31.08;39.07;100640.03;4994009;28;20096;-78
2022/06/27 10:59:04;;;;;;;6.65;2.78;;;;;;;31.17;39.40;100632.94;4993825;28;20149;-77
2022/06/27 11:01:30;;;;;;;10.07;5.50;;;;;;;31.14;39.93;100627.88;4993767;28;20034;-77
2022/06/27 11:03:56;;;;;;;25.15;7.75;;;;;;;31.24;39.58;100630.78;4993589;28;20042;-78
2022/06/27 11:06:22;;;;;;;6.70;2.92;;;;;;;31.35;38.83;100625.34;4993565;28;20092;-78
2022/06/27 11:08:53;;;;;;;14.52;3.28;;;;;;;31.54;37.41;100612.78;4993541;28;20037;-78
2022/06/27 11:11:26;;;;;;;5.55;2.80;;;;;;;31.63;38.15;100597.31;4993767;28;20030;-77
2022/06/27 11:13:57;;;;;;;12.43;4.05;;;;;;;31.69;38.15;100604.59;4993374;28;20423;-77
2022/06/27 11:16:31;;;;;;;13.07;3.85;;;;;;;31.74;38.88;100618.56;4993167;28;20029;-77
2022/06/27 11:18:59;;;;;;;16.27;11.23;;;;;;;31.94;38.20;100617.88;4993204;28;20022;-78
2022/06/27 11:21:27;;;;;;;14.15;3.53;;;;;;;32.06;36.89;100615.78;4992555;28;20046;-79
2022/06/27 11:23:56;;;;;;;6.13;3.80;;;;;;;32.22;36.79;100615.66;4991822;28;20113;-77
2022/06/27 11:26:30;;;;;;;9.73;3.17;;;;;;;32.20;37.45;100617.84;4993239;28;20136;-78